sensor_id;sensor_type;location;lat;lon;timestamp;temperature;humidity
79760;DHT22;70512;42.122;24.732;2023-12-07T00:02:00;7.10;92.80
79760;DHT22;70512;42.122;24.732;2023-12-07T00:04:27;7.10;92.70
79760;DHT22;70512;42.122;24.732;2023-12-07T00:06:54;7.20;92.60
79760;DHT22;70512;42.122;24.732;2023-12-07T00:09:20;7.10;92.50
79760;DHT22;70512;42.122;24.732;2023-12-07T00:11:47;7.20;92.50
79760;DHT22;70512;42.122;24.732;2023-12-07T00:14:14;7.20;92.40
79760;DHT22;70512;42.122;24.732;2023-12-07T00:16:41;7.20;92.30
79760;DHT22;70512;42.122;24.732;2023-12-07T00:19:08;7.20;92.30
79760;DHT22;70512;42.122;24.732;2023-12-07T00:21:35;7.20;92.20
79760;DHT22;70512;42.122;24.732;2023-12-07T00:24:02;7.20;92.10
79760;DHT22;70512;42.122;24.732;2023-12-07T00:26:31;7.20;92.10
79760;DHT22;70512;42.122;24.732;2023-12-07T00:28:58;7.20;92.20
79760;DHT22;70512;42.122;24.732;2023-12-07T00:31:25;7.10;92.40
79760;DHT22;70512;42.122;24.732;2023-12-07T00:33:52;7.10;92.60
79760;DHT22;70512;42.122;24.732;2023-12-07T00:36:19;7.00;92.70
79760;DHT22;70512;42.122;24.732;2023-12-07T00:38:46;7.10;92.50
79760;DHT22;70512;42.122;24.732;2023-12-07T00:41:12;7.10;92.40
79760;DHT22;70512;42.122;24.732;2023-12-07T00:43:39;7.20;92.30
79760;DHT22;70512;42.122;24.732;2023-12-07T00:46:07;7.20;92.50
79760;DHT22;70512;42.122;24.732;2023-12-07T00:48:34;7.30;92.00
79760;DHT22;70512;42.122;24.732;2023-12-07T00:51:01;7.30;91.80
79760;DHT22;70512;42.122;24.732;2023-12-07T00:53:28;7.40;91.60
79760;DHT22;70512;42.122;24.732;2023-12-07T00:55:55;7.40;91.60
79760;DHT22;70512;42.122;24.732;2023-12-07T00:58:22;7.40;91.20
79760;DHT22;70512;42.122;24.732;2023-12-07T01:00:49;7.50;91.50
79760;DHT22;70512;42.122;24.732;2023-12-07T01:03:16;7.50;91.60
79760;DHT22;70512;42.122;24.732;2023-12-07T01:05:43;7.50;91.50
79760;DHT22;70512;42.122;24.732;2023-12-07T01:08:10;7.50;91.60
79760;DHT22;70512;42.122;24.732;2023-12-07T01:10:37;7.50;91.70
79760;DHT22;70512;42.122;24.732;2023-12-07T01:13:04;7.50;91.70
79760;DHT22;70512;42.122;24.732;2023-12-07T01:15:31;7.50;91.90
79760;DHT22;70512;42.122;24.732;2023-12-07T01:17:58;7.50;91.90
79760;DHT22;70512;42.122;24.732;2023-12-07T01:20:25;7.60;92.20
79760;DHT22;70512;42.122;24.732;2023-12-07T01:22:52;7.70;91.80
79760;DHT22;70512;42.122;24.732;2023-12-07T01:25:19;7.70;91.60
79760;DHT22;70512;42.122;24.732;2023-12-07T01:27:47;7.70;91.60
79760;DHT22;70512;42.122;24.732;2023-12-07T01:30:14;7.40;91.80
79760;DHT22;70512;42.122;24.732;2023-12-07T01:32:42;7.20;92.30
79760;DHT22;70512;42.122;24.732;2023-12-07T01:35:09;7.20;92.50
79760;DHT22;70512;42.122;24.732;2023-12-07T01:37:38;7.20;92.20
79760;DHT22;70512;42.122;24.732;2023-12-07T01:40:05;7.30;92.10
79760;DHT22;70512;42.122;24.732;2023-12-07T01:42:34;7.20;92.00
79760;DHT22;70512;42.122;24.732;2023-12-07T01:45:01;7.20;92.30
79760;DHT22;70512;42.122;24.732;2023-12-07T01:47:31;7.20;92.60
79760;DHT22;70512;42.122;24.732;2023-12-07T01:49:58;7.20;92.60
79760;DHT22;70512;42.122;24.732;2023-12-07T01:52:26;7.20;92.60
79760;DHT22;70512;42.122;24.732;2023-12-07T01:54:54;7.40;92.50
79760;DHT22;70512;42.122;24.732;2023-12-07T01:57:21;7.50;92.10
79760;DHT22;70512;42.122;24.732;2023-12-07T01:59:48;7.60;92.00
79760;DHT22;70512;42.122;24.732;2023-12-07T02:02:16;7.60;91.70
79760;DHT22;70512;42.122;24.732;2023-12-07T02:04:43;7.70;91.60
79760;DHT22;70512;42.122;24.732;2023-12-07T02:07:10;7.80;91.50
79760;DHT22;70512;42.122;24.732;2023-12-07T02:09:40;7.80;91.60
79760;DHT22;70512;42.122;24.732;2023-12-07T02:12:06;7.80;91.20
79760;DHT22;70512;42.122;24.732;2023-12-07T02:14:33;7.90;91.30
79760;DHT22;70512;42.122;24.732;2023-12-07T02:17:08;7.90;91.20
79760;DHT22;70512;42.122;24.732;2023-12-07T02:19:52;7.80;91.20
79760;DHT22;70512;42.122;24.732;2023-12-07T02:22:40;7.60;91.50
79760;DHT22;70512;42.122;24.732;2023-12-07T02:24:54;7.60;91.80
79760;DHT22;70512;42.122;24.732;2023-12-07T02:27:17;7.70;91.80
79760;DHT22;70512;42.122;24.732;2023-12-07T02:29:44;7.80;91.70
79760;DHT22;70512;42.122;24.732;2023-12-07T02:32:11;7.80;91.60
79760;DHT22;70512;42.122;24.732;2023-12-07T02:34:38;7.90;91.50
79760;DHT22;70512;42.122;24.732;2023-12-07T02:37:05;7.90;91.50
79760;DHT22;70512;42.122;24.732;2023-12-07T02:39:32;7.90;91.30
79760;DHT22;70512;42.122;24.732;2023-12-07T02:41:59;8.00;91.10
79760;DHT22;70512;42.122;24.732;2023-12-07T02:44:27;7.90;91.20
79760;DHT22;70512;42.122;24.732;2023-12-07T02:46:54;8.00;91.20
79760;DHT22;70512;42.122;24.732;2023-12-07T02:49:21;7.90;91.10
79760;DHT22;70512;42.122;24.732;2023-12-07T02:51:48;8.00;91.10
79760;DHT22;70512;42.122;24.732;2023-12-07T02:54:15;7.90;91.10
79760;DHT22;70512;42.122;24.732;2023-12-07T02:56:48;7.90;91.30
79760;DHT22;70512;42.122;24.732;2023-12-07T02:59:15;7.90;91.40
79760;DHT22;70512;42.122;24.732;2023-12-07T03:01:43;7.80;91.50
79760;DHT22;70512;42.122;24.732;2023-12-07T03:04:10;7.80;91.60
79760;DHT22;70512;42.122;24.732;2023-12-07T03:06:37;7.70;91.70
79760;DHT22;70512;42.122;24.732;2023-12-07T03:09:04;7.70;91.80
79760;DHT22;70512;42.122;24.732;2023-12-07T03:11:31;7.60;92.00
79760;DHT22;70512;42.122;24.732;2023-12-07T03:13:58;7.60;92.10
79760;DHT22;70512;42.122;24.732;2023-12-07T03:16:25;7.40;92.50
79760;DHT22;70512;42.122;24.732;2023-12-07T03:18:52;7.20;93.00
79760;DHT22;70512;42.122;24.732;2023-12-07T03:21:19;7.10;93.30
79760;DHT22;70512;42.122;24.732;2023-12-07T03:23:46;7.10;93.50
79760;DHT22;70512;42.122;24.732;2023-12-07T03:26:13;7.10;93.40
79760;DHT22;70512;42.122;24.732;2023-12-07T03:28:42;7.10;93.40
79760;DHT22;70512;42.122;24.732;2023-12-07T03:31:08;7.10;93.30
79760;DHT22;70512;42.122;24.732;2023-12-07T03:33:35;7.10;93.30
79760;DHT22;70512;42.122;24.732;2023-12-07T03:36:04;7.10;93.30
79760;DHT22;70512;42.122;24.732;2023-12-07T03:38:33;7.10;93.20
79760;DHT22;70512;42.122;24.732;2023-12-07T03:40:59;7.10;93.20
79760;DHT22;70512;42.122;24.732;2023-12-07T03:43:26;7.10;93.20
79760;DHT22;70512;42.122;24.732;2023-12-07T03:45:53;7.10;93.10
79760;DHT22;70512;42.122;24.732;2023-12-07T03:48:20;7.10;93.30
79760;DHT22;70512;42.122;24.732;2023-12-07T03:50:47;7.10;92.90
79760;DHT22;70512;42.122;24.732;2023-12-07T03:53:14;6.90;93.20
79760;DHT22;70512;42.122;24.732;2023-12-07T03:55:41;6.60;93.80
79760;DHT22;70512;42.122;24.732;2023-12-07T03:58:08;6.40;94.60
79760;DHT22;70512;42.122;24.732;2023-12-07T04:00:35;6.40;94.50
79760;DHT22;70512;42.122;24.732;2023-12-07T04:03:02;6.30;94.70
79760;DHT22;70512;42.122;24.732;2023-12-07T04:05:29;6.30;94.70
79760;DHT22;70512;42.122;24.732;2023-12-07T04:07:56;6.40;94.60
79760;DHT22;70512;42.122;24.732;2023-12-07T04:10:23;6.30;94.70
79760;DHT22;70512;42.122;24.732;2023-12-07T04:12:50;6.30;94.70
79760;DHT22;70512;42.122;24.732;2023-12-07T04:15:19;6.40;94.60
79760;DHT22;70512;42.122;24.732;2023-12-07T04:17:46;6.40;94.40
79760;DHT22;70512;42.122;24.732;2023-12-07T04:20:13;6.40;94.30
79760;DHT22;70512;42.122;24.732;2023-12-07T04:22:40;6.40;94.40
79760;DHT22;70512;42.122;24.732;2023-12-07T04:25:07;6.30;94.40
79760;DHT22;70512;42.122;24.732;2023-12-07T04:27:35;6.40;94.50
79760;DHT22;70512;42.122;24.732;2023-12-07T04:30:02;6.40;94.40
79760;DHT22;70512;42.122;24.732;2023-12-07T04:32:29;6.40;94.30
79760;DHT22;70512;42.122;24.732;2023-12-07T04:34:56;6.40;94.20
79760;DHT22;70512;42.122;24.732;2023-12-07T04:37:23;6.50;94.30
79760;DHT22;70512;42.122;24.732;2023-12-07T04:39:50;6.50;94.10
79760;DHT22;70512;42.122;24.732;2023-12-07T04:42:17;6.60;93.90
79760;DHT22;70512;42.122;24.732;2023-12-07T04:44:44;6.50;93.90
79760;DHT22;70512;42.122;24.732;2023-12-07T04:47:11;6.30;94.20
79760;DHT22;70512;42.122;24.732;2023-12-07T04:49:38;6.30;94.30
79760;DHT22;70512;42.122;24.732;2023-12-07T04:52:05;6.20;94.50
79760;DHT22;70512;42.122;24.732;2023-12-07T04:54:32;6.00;94.80
79760;DHT22;70512;42.122;24.732;2023-12-07T04:57:00;5.90;95.10
79760;DHT22;70512;42.122;24.732;2023-12-07T04:59:27;5.70;95.30
79760;DHT22;70512;42.122;24.732;2023-12-07T05:01:54;5.70;95.50
79760;DHT22;70512;42.122;24.732;2023-12-07T05:04:21;5.70;95.60
79760;DHT22;70512;42.122;24.732;2023-12-07T05:06:48;5.80;95.40
79760;DHT22;70512;42.122;24.732;2023-12-07T05:09:15;5.80;95.30
79760;DHT22;70512;42.122;24.732;2023-12-07T05:11:42;5.80;95.30
79760;DHT22;70512;42.122;24.732;2023-12-07T05:14:10;5.90;95.20
79760;DHT22;70512;42.122;24.732;2023-12-07T05:16:40;6.00;94.70
79760;DHT22;70512;42.122;24.732;2023-12-07T05:19:07;6.10;94.60
79760;DHT22;70512;42.122;24.732;2023-12-07T05:21:34;6.10;94.60
79760;DHT22;70512;42.122;24.732;2023-12-07T05:24:01;6.10;94.50
79760;DHT22;70512;42.122;24.732;2023-12-07T05:26:28;6.20;94.40
79760;DHT22;70512;42.122;24.732;2023-12-07T05:28:57;6.20;94.30
79760;DHT22;70512;42.122;24.732;2023-12-07T05:31:25;6.20;94.30
79760;DHT22;70512;42.122;24.732;2023-12-07T05:33:52;6.20;94.40
79760;DHT22;70512;42.122;24.732;2023-12-07T05:36:19;6.20;94.40
79760;DHT22;70512;42.122;24.732;2023-12-07T05:38:46;5.90;95.20
79760;DHT22;70512;42.122;24.732;2023-12-07T05:41:13;5.70;95.60
79760;DHT22;70512;42.122;24.732;2023-12-07T05:43:40;5.50;96.20
79760;DHT22;70512;42.122;24.732;2023-12-07T05:46:07;5.40;96.60
79760;DHT22;70512;42.122;24.732;2023-12-07T05:48:36;5.30;97.00
79760;DHT22;70512;42.122;24.732;2023-12-07T05:51:04;5.30;97.20
79760;DHT22;70512;42.122;24.732;2023-12-07T05:53:31;5.30;97.10
79760;DHT22;70512;42.122;24.732;2023-12-07T05:55:58;5.30;97.10
79760;DHT22;70512;42.122;24.732;2023-12-07T05:58:25;5.30;97.30
79760;DHT22;70512;42.122;24.732;2023-12-07T06:00:52;5.30;97.40
79760;DHT22;70512;42.122;24.732;2023-12-07T06:03:19;5.30;97.50
79760;DHT22;70512;42.122;24.732;2023-12-07T06:05:46;5.40;97.60
79760;DHT22;70512;42.122;24.732;2023-12-07T06:08:13;5.40;97.40
79760;DHT22;70512;42.122;24.732;2023-12-07T06:10:40;5.50;97.50
79760;DHT22;70512;42.122;24.732;2023-12-07T06:13:07;5.50;97.30
79760;DHT22;70512;42.122;24.732;2023-12-07T06:15:34;5.50;97.40
79760;DHT22;70512;42.122;24.732;2023-12-07T06:18:01;5.60;97.30
79760;DHT22;70512;42.122;24.732;2023-12-07T06:20:30;5.70;97.00
79760;DHT22;70512;42.122;24.732;2023-12-07T06:22:57;5.60;97.00
79760;DHT22;70512;42.122;24.732;2023-12-07T06:25:24;5.60;97.00
79760;DHT22;70512;42.122;24.732;2023-12-07T06:27:54;5.60;97.20
79760;DHT22;70512;42.122;24.732;2023-12-07T06:30:22;5.60;97.40
79760;DHT22;70512;42.122;24.732;2023-12-07T06:32:50;5.60;97.30
79760;DHT22;70512;42.122;24.732;2023-12-07T06:35:17;5.70;97.40
79760;DHT22;70512;42.122;24.732;2023-12-07T06:37:45;5.80;97.10
79760;DHT22;70512;42.122;24.732;2023-12-07T06:40:12;5.80;97.10
79760;DHT22;70512;42.122;24.732;2023-12-07T06:42:44;5.80;97.00
79760;DHT22;70512;42.122;24.732;2023-12-07T06:45:08;5.80;97.10
79760;DHT22;70512;42.122;24.732;2023-12-07T06:47:40;5.90;97.00
79760;DHT22;70512;42.122;24.732;2023-12-07T06:50:09;6.00;96.80
79760;DHT22;70512;42.122;24.732;2023-12-07T06:52:37;6.10;96.40
79760;DHT22;70512;42.122;24.732;2023-12-07T06:55:18;6.20;96.00
79760;DHT22;70512;42.122;24.732;2023-12-07T06:57:32;6.30;95.90
79760;DHT22;70512;42.122;24.732;2023-12-07T07:00:04;6.50;96.10
79760;DHT22;70512;42.122;24.732;2023-12-07T07:02:30;6.70;95.50
79760;DHT22;70512;42.122;24.732;2023-12-07T07:04:57;7.00;94.80
79760;DHT22;70512;42.122;24.732;2023-12-07T07:07:23;7.30;94.10
79760;DHT22;70512;42.122;24.732;2023-12-07T07:09:50;7.50;93.50
79760;DHT22;70512;42.122;24.732;2023-12-07T07:12:17;7.60;93.10
79760;DHT22;70512;42.122;24.732;2023-12-07T07:14:44;7.80;92.70
79760;DHT22;70512;42.122;24.732;2023-12-07T07:17:11;8.00;92.30
79760;DHT22;70512;42.122;24.732;2023-12-07T07:19:38;8.20;91.90
79760;DHT22;70512;42.122;24.732;2023-12-07T07:22:05;8.30;91.40
79760;DHT22;70512;42.122;24.732;2023-12-07T07:24:32;8.40;90.80
79760;DHT22;70512;42.122;24.732;2023-12-07T07:27:03;8.50;90.50
79760;DHT22;70512;42.122;24.732;2023-12-07T07:29:29;8.60;90.10
79760;DHT22;70512;42.122;24.732;2023-12-07T07:31:57;8.60;89.90
79760;DHT22;70512;42.122;24.732;2023-12-07T07:34:24;8.70;89.60
79760;DHT22;70512;42.122;24.732;2023-12-07T07:36:51;8.80;89.30
79760;DHT22;70512;42.122;24.732;2023-12-07T07:39:18;8.90;88.90
79760;DHT22;70512;42.122;24.732;2023-12-07T07:41:45;9.00;88.40
79760;DHT22;70512;42.122;24.732;2023-12-07T07:44:12;9.10;87.90
79760;DHT22;70512;42.122;24.732;2023-12-07T07:46:44;9.20;87.10
79760;DHT22;70512;42.122;24.732;2023-12-07T07:49:07;9.30;86.90
79760;DHT22;70512;42.122;24.732;2023-12-07T07:51:34;9.40;86.40
79760;DHT22;70512;42.122;24.732;2023-12-07T07:54:01;9.60;86.20
79760;DHT22;70512;42.122;24.732;2023-12-07T07:56:28;9.70;85.50
79760;DHT22;70512;42.122;24.732;2023-12-07T07:58:55;9.80;84.90
79760;DHT22;70512;42.122;24.732;2023-12-07T08:01:24;9.90;84.50
79760;DHT22;70512;42.122;24.732;2023-12-07T08:03:51;9.90;83.70
79760;DHT22;70512;42.122;24.732;2023-12-07T08:06:17;9.90;83.60
79760;DHT22;70512;42.122;24.732;2023-12-07T08:08:44;9.90;83.60
79760;DHT22;70512;42.122;24.732;2023-12-07T08:11:13;10.00;83.20
79760;DHT22;70512;42.122;24.732;2023-12-07T08:13:40;10.00;82.60
79760;DHT22;70512;42.122;24.732;2023-12-07T08:16:07;10.00;83.30
79760;DHT22;70512;42.122;24.732;2023-12-07T08:18:35;10.00;82.10
79760;DHT22;70512;42.122;24.732;2023-12-07T08:21:06;10.00;81.90
79760;DHT22;70512;42.122;24.732;2023-12-07T08:23:33;10.00;82.10
79760;DHT22;70512;42.122;24.732;2023-12-07T08:25:59;10.10;82.20
79760;DHT22;70512;42.122;24.732;2023-12-07T08:28:25;10.20;81.60
79760;DHT22;70512;42.122;24.732;2023-12-07T08:30:52;10.20;81.50
79760;DHT22;70512;42.122;24.732;2023-12-07T08:33:19;10.30;81.20
79760;DHT22;70512;42.122;24.732;2023-12-07T08:35:48;10.40;81.70
79760;DHT22;70512;42.122;24.732;2023-12-07T08:38:16;10.60;81.00
79760;DHT22;70512;42.122;24.732;2023-12-07T08:40:43;10.80;80.50
79760;DHT22;70512;42.122;24.732;2023-12-07T08:43:10;11.00;79.80
79760;DHT22;70512;42.122;24.732;2023-12-07T08:45:39;11.10;78.40
79760;DHT22;70512;42.122;24.732;2023-12-07T08:48:06;11.10;78.60
79760;DHT22;70512;42.122;24.732;2023-12-07T08:50:33;11.20;78.20
79760;DHT22;70512;42.122;24.732;2023-12-07T08:53:00;11.40;78.00
79760;DHT22;70512;42.122;24.732;2023-12-07T08:55:26;11.50;76.10
79760;DHT22;70512;42.122;24.732;2023-12-07T08:57:54;11.70;75.70
79760;DHT22;70512;42.122;24.732;2023-12-07T09:00:21;11.80;74.80
79760;DHT22;70512;42.122;24.732;2023-12-07T09:02:49;11.90;73.80
79760;DHT22;70512;42.122;24.732;2023-12-07T09:05:18;12.10;74.40
79760;DHT22;70512;42.122;24.732;2023-12-07T09:07:45;12.10;73.60
79760;DHT22;70512;42.122;24.732;2023-12-07T09:10:12;12.00;73.40
79760;DHT22;70512;42.122;24.732;2023-12-07T09:12:38;12.00;73.60
79760;DHT22;70512;42.122;24.732;2023-12-07T09:15:07;12.00;72.50
79760;DHT22;70512;42.122;24.732;2023-12-07T09:17:35;12.00;73.30
79760;DHT22;70512;42.122;24.732;2023-12-07T09:20:07;12.00;73.50
79760;DHT22;70512;42.122;24.732;2023-12-07T09:22:39;12.10;73.50
79760;DHT22;70512;42.122;24.732;2023-12-07T09:25:07;12.20;73.20
79760;DHT22;70512;42.122;24.732;2023-12-07T09:27:34;12.30;72.90
79760;DHT22;70512;42.122;24.732;2023-12-07T09:30:06;12.30;72.40
79760;DHT22;70512;42.122;24.732;2023-12-07T09:32:35;12.30;72.30
79760;DHT22;70512;42.122;24.732;2023-12-07T09:35:04;12.30;72.40
79760;DHT22;70512;42.122;24.732;2023-12-07T09:37:33;12.30;72.40
79760;DHT22;70512;42.122;24.732;2023-12-07T09:40:00;12.30;72.00
79760;DHT22;70512;42.122;24.732;2023-12-07T09:42:29;12.40;72.10
79760;DHT22;70512;42.122;24.732;2023-12-07T09:44:56;12.50;72.20
79760;DHT22;70512;42.122;24.732;2023-12-07T09:47:23;12.60;71.40
79760;DHT22;70512;42.122;24.732;2023-12-07T09:49:50;12.80;71.20
79760;DHT22;70512;42.122;24.732;2023-12-07T09:52:17;12.90;69.90
79760;DHT22;70512;42.122;24.732;2023-12-07T09:54:47;13.00;69.70
79760;DHT22;70512;42.122;24.732;2023-12-07T09:57:15;13.10;67.70
79760;DHT22;70512;42.122;24.732;2023-12-07T09:59:50;13.20;66.80
79760;DHT22;70512;42.122;24.732;2023-12-07T10:02:22;13.30;66.10
79760;DHT22;70512;42.122;24.732;2023-12-07T10:05:03;13.20;66.00
79760;DHT22;70512;42.122;24.732;2023-12-07T10:07:18;13.20;66.60
79760;DHT22;70512;42.122;24.732;2023-12-07T10:09:46;13.20;66.20
79760;DHT22;70512;42.122;24.732;2023-12-07T10:12:13;13.10;66.80
79760;DHT22;70512;42.122;24.732;2023-12-07T10:14:40;13.10;67.00
79760;DHT22;70512;42.122;24.732;2023-12-07T10:17:07;13.20;66.60
79760;DHT22;70512;42.122;24.732;2023-12-07T10:19:34;13.20;67.00
79760;DHT22;70512;42.122;24.732;2023-12-07T10:22:01;13.10;67.40
79760;DHT22;70512;42.122;24.732;2023-12-07T10:24:28;13.00;67.50
79760;DHT22;70512;42.122;24.732;2023-12-07T10:26:57;12.90;67.80
79760;DHT22;70512;42.122;24.732;2023-12-07T10:29:25;12.80;69.20
79760;DHT22;70512;42.122;24.732;2023-12-07T10:31:59;12.70;68.70
79760;DHT22;70512;42.122;24.732;2023-12-07T10:34:21;12.70;70.60
79760;DHT22;70512;42.122;24.732;2023-12-07T10:36:48;12.80;69.70
79760;DHT22;70512;42.122;24.732;2023-12-07T10:39:19;13.00;69.40
79760;DHT22;70512;42.122;24.732;2023-12-07T10:41:46;13.10;68.90
79760;DHT22;70512;42.122;24.732;2023-12-07T10:44:14;13.20;68.80
79760;DHT22;70512;42.122;24.732;2023-12-07T10:46:43;13.20;68.50
79760;DHT22;70512;42.122;24.732;2023-12-07T10:49:11;13.20;68.20
79760;DHT22;70512;42.122;24.732;2023-12-07T10:51:40;13.20;68.50
79760;DHT22;70512;42.122;24.732;2023-12-07T10:54:06;13.10;68.70
79760;DHT22;70512;42.122;24.732;2023-12-07T10:56:38;13.10;69.10
79760;DHT22;70512;42.122;24.732;2023-12-07T10:59:12;13.30;68.80
79760;DHT22;70512;42.122;24.732;2023-12-07T11:01:42;13.40;68.50
79760;DHT22;70512;42.122;24.732;2023-12-07T11:04:15;13.60;67.90
79760;DHT22;70512;42.122;24.732;2023-12-07T11:06:41;13.90;67.30
79760;DHT22;70512;42.122;24.732;2023-12-07T11:09:09;14.10;66.40
79760;DHT22;70512;42.122;24.732;2023-12-07T11:14:11;14.50;65.30
79760;DHT22;70512;42.122;24.732;2023-12-07T11:16:42;14.50;64.20
79760;DHT22;70512;42.122;24.732;2023-12-07T11:21:55;14.50;63.90
79760;DHT22;70512;42.122;24.732;2023-12-07T11:24:23;14.40;64.10
79760;DHT22;70512;42.122;24.732;2023-12-07T11:26:53;14.40;63.90
79760;DHT22;70512;42.122;24.732;2023-12-07T11:29:21;14.60;64.30
79760;DHT22;70512;42.122;24.732;2023-12-07T11:31:48;14.70;63.10
79760;DHT22;70512;42.122;24.732;2023-12-07T11:34:33;14.50;62.80
79760;DHT22;70512;42.122;24.732;2023-12-07T11:36:48;14.30;63.90
79760;DHT22;70512;42.122;24.732;2023-12-07T11:39:17;14.30;64.00
79760;DHT22;70512;42.122;24.732;2023-12-07T11:41:44;14.40;64.30
79760;DHT22;70512;42.122;24.732;2023-12-07T11:44:11;14.40;63.80
79760;DHT22;70512;42.122;24.732;2023-12-07T11:46:39;14.40;63.50
79760;DHT22;70512;42.122;24.732;2023-12-07T11:49:08;14.40;63.30
79760;DHT22;70512;42.122;24.732;2023-12-07T11:51:36;14.30;63.90
79760;DHT22;70512;42.122;24.732;2023-12-07T11:54:04;14.30;64.10
79760;DHT22;70512;42.122;24.732;2023-12-07T11:56:31;14.30;63.50
79760;DHT22;70512;42.122;24.732;2023-12-07T11:58:58;14.20;64.00
79760;DHT22;70512;42.122;24.732;2023-12-07T12:01:25;14.20;63.90
79760;DHT22;70512;42.122;24.732;2023-12-07T12:03:53;14.30;63.70
79760;DHT22;70512;42.122;24.732;2023-12-07T12:06:23;14.30;63.70
79760;DHT22;70512;42.122;24.732;2023-12-07T12:08:50;14.30;63.20
79760;DHT22;70512;42.122;24.732;2023-12-07T12:11:18;14.40;63.60
79760;DHT22;70512;42.122;24.732;2023-12-07T12:13:45;14.50;63.20
79760;DHT22;70512;42.122;24.732;2023-12-07T12:16:13;14.70;62.60
79760;DHT22;70512;42.122;24.732;2023-12-07T12:18:40;14.90;61.70
79760;DHT22;70512;42.122;24.732;2023-12-07T12:21:08;15.00;61.40
79760;DHT22;70512;42.122;24.732;2023-12-07T12:23:37;15.30;60.90
79760;DHT22;70512;42.122;24.732;2023-12-07T12:26:06;15.20;59.80
79760;DHT22;70512;42.122;24.732;2023-12-07T12:28:33;14.90;60.70
79760;DHT22;70512;42.122;24.732;2023-12-07T12:31:02;14.70;61.90
79760;DHT22;70512;42.122;24.732;2023-12-07T12:33:30;14.50;62.80
79760;DHT22;70512;42.122;24.732;2023-12-07T12:36:08;14.20;63.70
79760;DHT22;70512;42.122;24.732;2023-12-07T12:38:33;14.10;64.80
79760;DHT22;70512;42.122;24.732;2023-12-07T12:41:00;14.10;65.20
79760;DHT22;70512;42.122;24.732;2023-12-07T12:43:27;14.10;64.50
79760;DHT22;70512;42.122;24.732;2023-12-07T12:45:55;13.90;65.30
79760;DHT22;70512;42.122;24.732;2023-12-07T12:48:23;13.70;66.10
79760;DHT22;70512;42.122;24.732;2023-12-07T12:50:50;13.50;67.30
79760;DHT22;70512;42.122;24.732;2023-12-07T12:53:17;13.40;67.70
79760;DHT22;70512;42.122;24.732;2023-12-07T12:55:45;13.20;68.60
79760;DHT22;70512;42.122;24.732;2023-12-07T12:58:13;13.30;68.80
79760;DHT22;70512;42.122;24.732;2023-12-07T13:00:42;13.30;68.70
79760;DHT22;70512;42.122;24.732;2023-12-07T13:03:11;13.10;69.30
79760;DHT22;70512;42.122;24.732;2023-12-07T13:05:39;13.00;69.60
79760;DHT22;70512;42.122;24.732;2023-12-07T13:08:06;12.80;70.20
79760;DHT22;70512;42.122;24.732;2023-12-07T13:10:33;12.80;71.40
79760;DHT22;70512;42.122;24.732;2023-12-07T13:13:00;12.70;71.40
79760;DHT22;70512;42.122;24.732;2023-12-07T13:15:28;12.70;70.70
79760;DHT22;70512;42.122;24.732;2023-12-07T13:17:55;12.60;71.20
79760;DHT22;70512;42.122;24.732;2023-12-07T13:20:22;12.50;71.20
79760;DHT22;70512;42.122;24.732;2023-12-07T13:22:49;12.20;72.60
79760;DHT22;70512;42.122;24.732;2023-12-07T13:25:16;12.10;73.30
79760;DHT22;70512;42.122;24.732;2023-12-07T13:27:43;12.10;74.30
79760;DHT22;70512;42.122;24.732;2023-12-07T13:30:10;12.30;73.60
79760;DHT22;70512;42.122;24.732;2023-12-07T13:32:38;12.40;73.30
79760;DHT22;70512;42.122;24.732;2023-12-07T13:35:07;12.50;72.90
79760;DHT22;70512;42.122;24.732;2023-12-07T13:37:41;12.50;72.30
79760;DHT22;70512;42.122;24.732;2023-12-07T13:40:07;12.60;72.00
79760;DHT22;70512;42.122;24.732;2023-12-07T13:42:36;12.60;71.70
79760;DHT22;70512;42.122;24.732;2023-12-07T13:45:04;12.50;71.90
79760;DHT22;70512;42.122;24.732;2023-12-07T13:47:33;12.50;72.20
79760;DHT22;70512;42.122;24.732;2023-12-07T13:50:03;12.50;72.30
79760;DHT22;70512;42.122;24.732;2023-12-07T13:52:30;12.50;73.00
79760;DHT22;70512;42.122;24.732;2023-12-07T13:54:58;12.40;73.50
79760;DHT22;70512;42.122;24.732;2023-12-07T13:57:25;12.50;73.20
79760;DHT22;70512;42.122;24.732;2023-12-07T13:59:52;12.50;72.80
79760;DHT22;70512;42.122;24.732;2023-12-07T14:02:19;12.40;72.80
79760;DHT22;70512;42.122;24.732;2023-12-07T14:04:46;12.40;72.90
79760;DHT22;70512;42.122;24.732;2023-12-07T14:07:20;12.30;73.40
79760;DHT22;70512;42.122;24.732;2023-12-07T14:09:49;12.30;73.70
79760;DHT22;70512;42.122;24.732;2023-12-07T14:12:17;12.30;74.40
79760;DHT22;70512;42.122;24.732;2023-12-07T14:14:45;12.10;74.80
79760;DHT22;70512;42.122;24.732;2023-12-07T14:17:13;12.10;75.10
79760;DHT22;70512;42.122;24.732;2023-12-07T14:19:40;12.00;75.30
79760;DHT22;70512;42.122;24.732;2023-12-07T14:22:07;11.90;75.70
79760;DHT22;70512;42.122;24.732;2023-12-07T14:24:37;11.90;75.90
79760;DHT22;70512;42.122;24.732;2023-12-07T14:27:05;11.90;76.10
79760;DHT22;70512;42.122;24.732;2023-12-07T14:29:33;11.80;76.60
79760;DHT22;70512;42.122;24.732;2023-12-07T14:32:00;11.80;76.70
79760;DHT22;70512;42.122;24.732;2023-12-07T14:34:27;11.70;77.10
79760;DHT22;70512;42.122;24.732;2023-12-07T14:36:54;11.70;77.70
79760;DHT22;70512;42.122;24.732;2023-12-07T14:39:21;11.70;77.80
79760;DHT22;70512;42.122;24.732;2023-12-07T14:41:48;11.80;78.20
79760;DHT22;70512;42.122;24.732;2023-12-07T14:44:18;11.70;77.90
79760;DHT22;70512;42.122;24.732;2023-12-07T14:46:46;11.70;78.20
79760;DHT22;70512;42.122;24.732;2023-12-07T14:49:14;11.70;78.60
79760;DHT22;70512;42.122;24.732;2023-12-07T14:51:41;11.70;79.40
79760;DHT22;70512;42.122;24.732;2023-12-07T14:54:08;11.60;79.20
79760;DHT22;70512;42.122;24.732;2023-12-07T14:56:37;11.60;79.80
79760;DHT22;70512;42.122;24.732;2023-12-07T14:59:04;11.60;80.70
79760;DHT22;70512;42.122;24.732;2023-12-07T15:01:31;11.60;80.90
79760;DHT22;70512;42.122;24.732;2023-12-07T15:03:58;11.70;81.40
79760;DHT22;70512;42.122;24.732;2023-12-07T15:06:26;11.70;80.40
79760;DHT22;70512;42.122;24.732;2023-12-07T15:08:54;11.70;81.80
79760;DHT22;70512;42.122;24.732;2023-12-07T15:11:22;11.60;82.50
79760;DHT22;70512;42.122;24.732;2023-12-07T15:13:49;11.60;82.30
79760;DHT22;70512;42.122;24.732;2023-12-07T15:16:17;11.50;83.80
79760;DHT22;70512;42.122;24.732;2023-12-07T15:18:44;11.60;82.90
79760;DHT22;70512;42.122;24.732;2023-12-07T15:21:14;11.50;83.60
79760;DHT22;70512;42.122;24.732;2023-12-07T15:23:41;11.50;83.90
79760;DHT22;70512;42.122;24.732;2023-12-07T15:26:09;11.50;84.60
79760;DHT22;70512;42.122;24.732;2023-12-07T15:28:41;11.60;83.80
79760;DHT22;70512;42.122;24.732;2023-12-07T15:31:08;11.60;83.70
79760;DHT22;70512;42.122;24.732;2023-12-07T15:33:35;11.60;84.30